Time;durP1;ratioP1;P1;durP2;ratioP2;P2;SDS_P1;SDS_P2;PMS_P1;PMS_P2;Temp;Humidity;BMP_temperature;BMP_pressure;BME280_temperature;BME280_humidity;BME280_pressure;Samples;Min_cycle;Max_cycle;Signal;HPM_P1;HPM_P2
2023/03/13 00:01:01;;;;;;;4.55;4.15;;;8.50;99.90;;;;;;5062853;28;20701;-70
2023/03/13 00:03:29;;;;;;;4.43;4.03;;;8.60;99.90;;;;;;5077647;28;20201;-70
2023/03/13 00:05:57;;;;;;;4.43;4.03;;;8.50;99.90;;;;;;5071856;28;20301;-70
2023/03/13 00:08:24;;;;;;;4.07;3.67;;;8.60;99.90;;;;;;5074894;28;20202;-70
2023/03/13 00:10:51;;;;;;;4.57;4.13;;;8.60;99.90;;;;;;5077373;28;20195;-70
2023/03/13 00:13:18;;;;;;;5.22;4.20;;;8.60;99.90;;;;;;5074783;28;20232;-70
2023/03/13 00:15:45;;;;;;;5.90;4.40;;;8.60;99.90;;;;;;5073270;28;20218;-69
2023/03/13 00:18:13;;;;;;;4.47;4.07;;;8.60;99.90;;;;;;5077640;28;20288;-70
2023/03/13 00:20:41;;;;;;;5.13;4.30;;;8.60;99.90;;;;;;5074041;28;20238;-70
2023/03/13 00:23:08;;;;;;;4.80;4.40;;;8.60;99.90;;;;;;5075638;28;20249;-70
2023/03/13 00:25:36;;;;;;;4.50;4.10;;;8.50;99.90;;;;;;5075663;28;20249;-70
2023/03/13 00:28:03;;;;;;;4.28;3.88;;;8.50;99.90;;;;;;5076688;28;20206;-70
2023/03/13 00:30:30;;;;;;;4.43;4.00;;;8.60;99.90;;;;;;5072933;28;20233;-70
2023/03/13 00:32:57;;;;;;;5.00;4.55;;;8.60;99.90;;;;;;5075116;28;20249;-71
2023/03/13 00:35:24;;;;;;;4.32;3.90;;;8.50;99.90;;;;;;5072302;28;20296;-71
2023/03/13 00:37:52;;;;;;;4.50;4.10;;;8.60;99.90;;;;;;5071202;28;20583;-71
2023/03/13 00:40:19;;;;;;;4.85;4.28;;;8.60;99.90;;;;;;5075476;28;20306;-70
2023/03/13 00:42:47;;;;;;;5.28;3.88;;;8.50;99.90;;;;;;5069722;28;20298;-70
2023/03/13 00:45:14;;;;;;;4.47;4.05;;;8.50;99.90;;;;;;5072667;28;20304;-70
2023/03/13 00:47:41;;;;;;;4.20;3.65;;;8.50;99.90;;;;;;5072224;28;20248;-70
2023/03/13 00:50:09;;;;;;;4.88;4.20;;;8.40;99.90;;;;;;5074805;28;20241;-71
2023/03/13 00:52:36;;;;;;;5.78;4.35;;;8.40;99.90;;;;;;5074570;28;20724;-71
2023/03/13 00:55:05;;;;;;;4.43;4.03;;;8.30;99.90;;;;;;5073336;28;20222;-71
2023/03/13 00:57:36;;;;;;;4.70;4.30;;;8.20;99.90;;;;;;5071544;28;20248;-71
2023/03/13 01:00:05;;;;;;;5.22;4.70;;;8.20;99.90;;;;;;5072826;28;20248;-71
2023/03/13 01:02:33;;;;;;;4.28;3.97;;;8.20;99.90;;;;;;5074817;28;20274;-71
2023/03/13 01:05:00;;;;;;;5.15;4.65;;;8.20;99.90;;;;;;5071485;28;20583;-70
2023/03/13 01:07:29;;;;;;;4.80;4.40;;;8.20;99.90;;;;;;5069936;28;20202;-70
2023/03/13 01:09:56;;;;;;;4.22;3.92;;;8.20;99.90;;;;;;5070220;28;20618;-71
2023/03/13 01:12:24;;;;;;;4.13;3.83;;;8.20;99.90;;;;;;5070241;28;20295;-71
2023/03/13 01:14:51;;;;;;;4.28;3.97;;;8.20;99.90;;;;;;5072624;28;20229;-71
2023/03/13 01:17:18;;;;;;;3.88;3.58;;;8.10;99.90;;;;;;5072033;28;20318;-71
2023/03/13 01:19:45;;;;;;;4.68;4.18;;;8.10;99.90;;;;;;5073265;28;20302;-71
2023/03/13 01:22:12;;;;;;;6.22;3.67;;;8.20;99.90;;;;;;5068967;28;20246;-70
2023/03/13 01:24:39;;;;;;;4.15;3.63;;;8.10;99.90;;;;;;5072566;28;20259;-71
2023/03/13 01:27:06;;;;;;;4.43;3.88;;;8.10;99.90;;;;;;5071806;28;20822;-70
2023/03/13 01:29:35;;;;;;;4.20;3.80;;;8.10;99.90;;;;;;5075399;28;20910;-70
2023/03/13 01:32:02;;;;;;;4.05;3.65;;;8.10;99.90;;;;;;5072106;28;20309;-70
2023/03/13 01:34:29;;;;;;;3.92;3.63;;;8.00;99.90;;;;;;5070806;28;20237;-70
2023/03/13 01:36:56;;;;;;;3.80;3.50;;;8.00;99.90;;;;;;5070891;28;20285;-70
2023/03/13 01:39:23;;;;;;;4.25;3.85;;;8.00;99.90;;;;;;5076340;28;20578;-70
2023/03/13 01:41:50;;;;;;;3.55;3.25;;;7.90;99.90;;;;;;5074469;28;20659;-70
2023/03/13 01:44:22;;;;;;;4.30;3.90;;;7.90;99.90;;;;;;5074226;28;20259;-70
2023/03/13 01:46:50;;;;;;;4.55;4.10;;;7.90;99.90;;;;;;5072505;28;20464;-70
2023/03/13 01:49:21;;;;;;;4.00;3.70;;;7.80;99.90;;;;;;5069875;28;20293;-70
2023/03/13 01:51:52;;;;;;;4.82;4.38;;;7.80;99.90;;;;;;5069568;28;20218;-70
2023/03/13 01:54:23;;;;;;;4.35;3.90;;;7.80;99.90;;;;;;5079086;28;20414;-70
2023/03/13 01:56:53;;;;;;;3.92;3.60;;;7.80;99.90;;;;;;5071601;28;20281;-70
2023/03/13 01:59:25;;;;;;;4.85;4.35;;;7.70;99.90;;;;;;5079411;28;20201;-70
2023/03/13 02:01:57;;;;;;;4.95;4.30;;;7.80;99.90;;;;;;5075590;28;20218;-70
2023/03/13 02:04:27;;;;;;;4.43;4.03;;;7.70;99.90;;;;;;5074046;28;20292;-70
2023/03/13 02:06:58;;;;;;;4.68;4.28;;;7.60;99.90;;;;;;5086380;28;20222;-70
2023/03/13 02:09:29;;;;;;;4.78;4.28;;;7.60;99.90;;;;;;5074187;28;20670;-70
2023/03/13 02:12:03;;;;;;;4.50;4.03;;;7.50;99.90;;;;;;5076426;28;20305;-70
2023/03/13 02:14:34;;;;;;;4.95;4.55;;;7.50;99.90;;;;;;5078231;28;20802;-70
2023/03/13 02:17:03;;;;;;;4.40;4.00;;;7.50;99.90;;;;;;5073343;28;20466;-70
2023/03/13 02:19:35;;;;;;;4.20;3.90;;;7.40;99.90;;;;;;5071003;28;20320;-70
2023/03/13 02:22:12;;;;;;;4.85;4.10;;;7.40;99.90;;;;;;5077348;28;20540;-70
2023/03/13 02:24:46;;;;;;;4.10;3.80;;;7.30;99.90;;;;;;5072638;28;20198;-70
2023/03/13 02:27:14;;;;;;;4.63;4.22;;;7.30;99.90;;;;;;5077001;28;20305;-70
2023/03/13 02:29:42;;;;;;;4.65;4.25;;;7.30;99.90;;;;;;5072641;28;20290;-70
2023/03/13 02:32:09;;;;;;;5.15;4.53;;;7.30;99.90;;;;;;5078377;28;20245;-70
2023/03/13 02:34:39;;;;;;;5.53;4.20;;;7.30;99.90;;;;;;5070684;28;20786;-70
2023/03/13 02:37:09;;;;;;;4.13;3.72;;;7.40;99.90;;;;;;5079681;28;20289;-71
2023/03/13 02:39:40;;;;;;;4.53;4.13;;;7.40;99.90;;;;;;5076048;28;20209;-70
2023/03/13 02:42:08;;;;;;;4.70;4.30;;;7.50;99.90;;;;;;5078761;28;20249;-71
2023/03/13 02:44:40;;;;;;;3.85;3.53;;;7.50;99.90;;;;;;5074546;28;20202;-71
2023/03/13 02:47:08;;;;;;;4.18;3.83;;;7.50;99.90;;;;;;5074318;28;20377;-70
2023/03/13 02:49:36;;;;;;;4.75;4.00;;;7.50;99.90;;;;;;5072721;28;20210;-71
2023/03/13 02:52:10;;;;;;;4.80;4.40;;;7.60;99.90;;;;;;5073722;28;20305;-70
2023/03/13 02:54:39;;;;;;;4.40;4.00;;;7.60;99.90;;;;;;5073281;28;20233;-71
2023/03/13 02:57:07;;;;;;;4.55;4.15;;;7.60;99.90;;;;;;5063305;28;20690;-71
2023/03/13 02:59:35;;;;;;;4.07;3.67;;;7.60;99.90;;;;;;5078564;28;20233;-70
2023/03/13 03:02:03;;;;;;;5.20;3.95;;;7.60;99.90;;;;;;5077075;28;20308;-71
2023/03/13 03:04:30;;;;;;;4.20;3.88;;;7.60;99.90;;;;;;5077344;28;20274;-70
2023/03/13 03:06:58;;;;;;;4.43;4.03;;;7.60;99.90;;;;;;5072479;28;20290;-71
2023/03/13 03:09:25;;;;;;;4.28;3.80;;;7.60;99.90;;;;;;5079412;28;20229;-70
2023/03/13 03:11:52;;;;;;;4.03;3.72;;;7.60;99.90;;;;;;5072168;28;20652;-70
2023/03/13 03:14:19;;;;;;;4.00;3.70;;;7.60;99.90;;;;;;5077475;28;20236;-71
2023/03/13 03:16:46;;;;;;;4.80;4.40;;;7.60;99.90;;;;;;5073308;28;20206;-70
2023/03/13 03:19:17;;;;;;;4.20;3.83;;;7.60;99.90;;;;;;5074526;28;20230;-70
2023/03/13 03:21:44;;;;;;;4.10;3.80;;;7.60;99.90;;;;;;5070702;28;20267;-70
2023/03/13 03:24:11;;;;;;;4.00;3.67;;;7.60;99.90;;;;;;5079353;28;20237;-70
2023/03/13 03:26:38;;;;;;;4.30;3.70;;;7.60;99.90;;;;;;5073518;28;20293;-70
2023/03/13 03:29:07;;;;;;;4.13;3.80;;;7.60;99.90;;;;;;5073107;28;20247;-70
2023/03/13 03:31:34;;;;;;;4.53;4.10;;;7.60;99.90;;;;;;5072563;28;20230;-71
2023/03/13 03:34:01;;;;;;;3.95;3.65;;;7.50;99.90;;;;;;5074740;28;20233;-71
2023/03/13 03:36:29;;;;;;;4.13;3.78;;;7.50;99.90;;;;;;5073535;28;20226;-70
2023/03/13 03:38:57;;;;;;;5.35;4.47;;;7.50;99.90;;;;;;5072804;28;20202;-70
2023/03/13 03:41:24;;;;;;;4.30;3.90;;;7.50;99.90;;;;;;5074229;28;20275;-70
2023/03/13 03:43:51;;;;;;;4.03;3.72;;;7.50;99.90;;;;;;5073211;28;20206;-70
2023/03/13 03:46:20;;;;;;;4.90;4.00;;;7.50;99.90;;;;;;5071745;28;20225;-70
2023/03/13 03:48:47;;;;;;;4.00;3.70;;;7.60;99.90;;;;;;5078396;28;20643;-70
2023/03/13 03:51:14;;;;;;;4.13;3.75;;;7.60;99.90;;;;;;5075139;28;20271;-70
2023/03/13 03:53:42;;;;;;;4.50;4.05;;;7.60;99.90;;;;;;5071189;28;20718;-70
2023/03/13 03:56:09;;;;;;;4.18;3.88;;;7.60;99.90;;;;;;5070072;28;20241;-70
2023/03/13 03:58:37;;;;;;;4.55;4.15;;;7.60;99.90;;;;;;5073747;28;20248;-70
2023/03/13 04:01:04;;;;;;;3.90;3.60;;;7.60;99.90;;;;;;5075419;28;20290;-71
2023/03/13 04:03:32;;;;;;;3.90;3.60;;;7.70;99.90;;;;;;5073531;28;20280;-70
2023/03/13 04:05:59;;;;;;;4.43;4.03;;;7.60;99.90;;;;;;5073116;28;20285;-70
2023/03/13 04:08:26;;;;;;;4.35;3.92;;;7.60;99.90;;;;;;5072694;28;20237;-70
2023/03/13 04:10:55;;;;;;;4.38;4.07;;;7.70;99.90;;;;;;5072242;28;20234;-70
2023/03/13 04:13:22;;;;;;;4.55;4.07;;;7.60;99.90;;;;;;5072007;28;20545;-70
2023/03/13 04:15:49;;;;;;;4.38;3.97;;;7.60;99.90;;;;;;5073804;28;20206;-70
2023/03/13 04:18:16;;;;;;;5.03;4.63;;;7.50;99.90;;;;;;5073993;28;20527;-70
2023/03/13 04:20:43;;;;;;;4.63;4.07;;;7.50;99.90;;;;;;5073655;28;20651;-70
2023/03/13 04:23:10;;;;;;;4.30;3.90;;;7.50;99.90;;;;;;5070535;28;20307;-69
2023/03/13 04:25:38;;;;;;;5.03;4.53;;;7.50;99.90;;;;;;5075163;28;21996;-70
2023/03/13 04:28:06;;;;;;;3.83;3.53;;;7.40;99.90;;;;;;5071288;28;20839;-70
2023/03/13 04:30:33;;;;;;;4.05;3.70;;;7.50;99.90;;;;;;5071801;28;20201;-69
2023/03/13 04:33:01;;;;;;;5.60;5.10;;;7.50;99.90;;;;;;5072808;28;20674;-69
2023/03/13 04:35:28;;;;;;;4.38;4.07;;;7.40;99.90;;;;;;5074454;28;20233;-70
2023/03/13 04:37:55;;;;;;;5.25;4.57;;;7.40;99.90;;;;;;5057036;28;20201;-70
2023/03/13 04:40:22;;;;;;;4.43;4.03;;;7.40;99.90;;;;;;5070053;28;20201;-70
2023/03/13 04:42:49;;;;;;;4.30;3.95;;;7.40;99.90;;;;;;5070415;28;20253;-71
2023/03/13 04:45:17;;;;;;;4.97;4.57;;;7.40;99.90;;;;;;5078530;28;20747;-70
2023/03/13 04:47:46;;;;;;;4.00;3.70;;;7.40;99.90;;;;;;5071049;28;20641;-69
2023/03/13 04:50:13;;;;;;;4.22;3.90;;;7.40;99.90;;;;;;5073372;28;20295;-69
2023/03/13 04:52:40;;;;;;;4.32;3.92;;;7.40;99.90;;;;;;5075241;28;20246;-69
2023/03/13 04:55:07;;;;;;;4.53;4.13;;;7.40;99.90;;;;;;5074647;28;20292;-69
2023/03/13 04:57:34;;;;;;;4.30;3.90;;;7.50;99.90;;;;;;5071691;28;20277;-69
2023/03/13 05:00:04;;;;;;;4.47;4.18;;;7.50;99.90;;;;;;5075928;28;20201;-69
2023/03/13 05:02:32;;;;;;;4.03;3.72;;;7.50;99.90;;;;;;5070444;28;20736;-69
2023/03/13 05:04:59;;;;;;;4.55;4.15;;;7.50;99.90;;;;;;5069919;28;20279;-69
2023/03/13 05:07:26;;;;;;;3.72;3.42;;;7.50;99.90;;;;;;5070741;28;20287;-69
2023/03/13 05:09:53;;;;;;;6.75;4.47;;;7.60;99.90;;;;;;5069221;28;20285;-70
2023/03/13 05:12:21;;;;;;;4.50;4.10;;;7.60;99.90;;;;;;5075271;28;20304;-70
2023/03/13 05:14:49;;;;;;;4.50;4.10;;;7.60;99.90;;;;;;5071495;28;20213;-69
2023/03/13 05:17:16;;;;;;;4.88;4.38;;;7.60;99.90;;;;;;5068327;28;21273;-70
2023/03/13 05:19:45;;;;;;;3.83;3.53;;;7.60;99.90;;;;;;5067305;28;20206;-70
2023/03/13 05:22:12;;;;;;;4.55;4.18;;;7.60;99.90;;;;;;5071149;28;20217;-69
2023/03/13 05:24:39;;;;;;;5.13;4.63;;;7.60;99.90;;;;;;5075986;28;20229;-69
2023/03/13 05:27:06;;;;;;;4.57;4.13;;;7.50;99.90;;;;;;5072965;28;20886;-70
2023/03/13 05:29:33;;;;;;;5.05;4.40;;;7.40;99.90;;;;;;5072025;28;20688;-70
2023/03/13 05:32:00;;;;;;;4.68;4.38;;;7.30;99.90;;;;;;5068227;28;20352;-70
2023/03/13 05:34:27;;;;;;;4.95;4.55;;;7.20;99.90;;;;;;5067705;28;20898;-70
2023/03/13 05:36:55;;;;;;;4.53;3.60;;;7.20;99.90;;;;;;5068966;28;20289;-68
2023/03/13 05:39:23;;;;;;;4.85;3.72;;;7.30;99.90;;;;;;5072375;28;20233;-69
2023/03/13 05:41:50;;;;;;;4.82;4.00;;;7.30;99.90;;;;;;5071710;28;20309;-69
2023/03/13 05:44:17;;;;;;;4.65;4.20;;;7.30;99.90;;;;;;5075422;28;20230;-69
2023/03/13 05:46:44;;;;;;;4.72;4.43;;;7.30;99.90;;;;;;5075760;28;20291;-69
2023/03/13 05:49:11;;;;;;;4.18;3.78;;;7.40;99.90;;;;;;5073348;28;20229;-69
2023/03/13 05:51:38;;;;;;;5.60;4.50;;;7.40;99.90;;;;;;5075793;28;20245;-69
2023/03/13 05:54:07;;;;;;;4.25;3.95;;;7.40;99.90;;;;;;5077114;28;20301;-69
2023/03/13 05:56:34;;;;;;;4.65;4.25;;;7.50;99.90;;;;;;5079889;28;20228;-69
2023/03/13 05:59:01;;;;;;;3.65;3.35;;;7.50;99.90;;;;;;5075027;28;20254;-69
2023/03/13 06:01:28;;;;;;;3.75;3.45;;;7.50;99.90;;;;;;5073053;28;20275;-70
2023/03/13 06:03:55;;;;;;;4.70;4.30;;;7.60;99.90;;;;;;5074917;28;20642;-69
2023/03/13 06:06:22;;;;;;;4.60;4.10;;;7.50;99.90;;;;;;5072485;28;20251;-69
2023/03/13 06:08:51;;;;;;;5.15;4.75;;;7.40;99.90;;;;;;5074268;28;20385;-69
2023/03/13 06:11:19;;;;;;;5.50;4.97;;;7.30;99.90;;;;;;5073566;28;21052;-69
2023/03/13 06:13:46;;;;;;;9.15;5.15;;;7.10;99.90;;;;;;5079404;28;20237;-69
2023/03/13 06:16:13;;;;;;;4.72;4.32;;;7.10;99.90;;;;;;5074269;28;20210;-70
2023/03/13 06:18:40;;;;;;;4.80;4.40;;;7.00;99.90;;;;;;5076284;28;20750;-70
2023/03/13 06:21:07;;;;;;;4.22;3.92;;;7.00;99.90;;;;;;5078534;28;20229;-70
2023/03/13 06:23:35;;;;;;;4.47;4.07;;;7.10;99.90;;;;;;5073510;28;20283;-70
2023/03/13 06:26:02;;;;;;;4.90;4.40;;;7.30;99.90;;;;;;5073114;28;20307;-70
2023/03/13 06:28:31;;;;;;;4.10;3.80;;;7.40;99.90;;;;;;5077200;28;20300;-69
2023/03/13 06:31:02;;;;;;;4.22;3.92;;;7.50;99.90;;;;;;5075763;28;20222;-70
2023/03/13 06:33:29;;;;;;;3.95;3.65;;;7.60;99.90;;;;;;5072965;28;20248;-69
2023/03/13 06:35:57;;;;;;;3.90;3.60;;;7.70;99.90;;;;;;5075673;28;20198;-69
2023/03/13 07:17:40;;;;;;;7.88;5.68;;;8.30;99.90;;;;;;5081946;27;20362;-76
2023/03/13 07:20:09;;;;;;;8.32;6.72;;;8.30;99.90;;;;;;5044857;28;20635;-75
2023/03/13 07:22:36;;;;;;;7.38;6.68;;;8.40;99.90;;;;;;5044838;28;20194;-75
2023/03/13 07:25:04;;;;;;;8.55;7.38;;;8.40;99.90;;;;;;5050833;28;20301;-76
2023/03/13 07:27:31;;;;;;;7.03;6.32;;;8.50;99.90;;;;;;5057016;28;20220;-75
2023/03/13 07:29:58;;;;;;;6.90;6.20;;;8.50;99.90;;;;;;5056174;28;20194;-75
2023/03/13 07:32:25;;;;;;;7.07;5.90;;;8.60;99.90;;;;;;5055397;28;20237;-75
2023/03/13 07:34:53;;;;;;;6.93;6.22;;;8.70;99.90;;;;;;5057047;28;20198;-75
2023/03/13 07:37:20;;;;;;;7.38;5.65;;;8.80;99.90;;;;;;5053885;28;20229;-75
2023/03/13 07:39:47;;;;;;;6.20;5.70;;;8.80;99.90;;;;;;5060653;28;20892;-75
2023/03/13 07:42:14;;;;;;;6.03;5.05;;;8.90;99.90;;;;;;5054799;28;20226;-74
2023/03/13 07:44:41;;;;;;;5.78;5.28;;;8.90;99.90;;;;;;5054762;28;20210;-77
2023/03/13 07:47:08;;;;;;;5.55;5.05;;;8.90;99.90;;;;;;5055831;28;20340;-76
2023/03/13 07:49:39;;;;;;;9.07;5.65;;;9.00;99.90;;;;;;5056971;28;20281;-74
2023/03/13 07:52:08;;;;;;;6.07;5.47;;;9.10;99.90;;;;;;5060384;28;20282;-75
2023/03/13 07:54:35;;;;;;;6.50;5.15;;;9.20;99.90;;;;;;5056139;28;20203;-75
2023/03/13 07:57:02;;;;;;;9.75;6.55;;;9.50;99.90;;;;;;5058283;28;20249;-76
2023/03/13 07:59:29;;;;;;;7.63;5.78;;;10.10;99.90;;;;;;5068212;28;20259;-76
2023/03/13 08:01:56;;;;;;;5.95;5.35;;;10.80;99.90;;;;;;5073756;28;20199;-76
2023/03/13 08:04:23;;;;;;;8.77;6.05;;;11.40;99.90;;;;;;5070770;28;20206;-75
2023/03/13 08:06:51;;;;;;;6.47;5.88;;;11.70;99.90;;;;;;5058058;28;20249;-76
2023/03/13 08:09:19;;;;;;;8.68;6.47;;;11.70;99.90;;;;;;5059916;28;20569;-76
2023/03/13 08:11:47;;;;;;;8.30;7.13;;;11.60;99.90;;;;;;5056795;28;20295;-77
2023/03/13 08:14:14;;;;;;;7.47;6.78;;;11.80;99.90;;;;;;5055287;28;20205;-77
2023/03/13 08:16:41;;;;;;;7.43;6.50;;;11.90;99.90;;;;;;5052225;28;20248;-77
2023/03/13 08:19:08;;;;;;;5.95;5.18;;;12.00;99.90;;;;;;5055064;28;21877;-77
2023/03/13 08:21:37;;;;;;;6.00;5.40;;;12.30;99.90;;;;;;5072302;28;20225;-77
2023/03/13 08:24:05;;;;;;;8.18;5.78;;;12.90;99.90;;;;;;5068172;28;20755;-75
2023/03/13 08:26:35;;;;;;;8.07;5.78;;;12.90;99.90;;;;;;5064488;28;20226;-76
2023/03/13 08:29:05;;;;;;;6.68;5.50;;;12.90;99.90;;;;;;5044057;28;20249;-76
2023/03/13 08:31:33;;;;;;;5.53;5.05;;;13.10;99.90;;;;;;5040089;28;20203;-75
2023/03/13 08:34:00;;;;;;;6.40;5.72;;;12.90;99.90;;;;;;5041398;28;20223;-76
2023/03/13 08:36:29;;;;;;;6.70;6.07;;;12.70;99.90;;;;;;5041970;28;20292;-75
2023/03/13 08:38:59;;;;;;;6.15;5.47;;;12.80;99.90;;;;;;5045016;28;20226;-77
2023/03/13 08:41:28;;;;;;;6.57;5.95;;;12.60;99.90;;;;;;5040326;28;20291;-74
2023/03/13 08:43:56;;;;;;;6.75;6.05;;;13.00;99.90;;;;;;5035734;28;20207;-74
2023/03/13 08:46:24;;;;;;;7.10;5.65;;;13.70;99.90;;;;;;5040116;28;20211;-75
2023/03/13 08:48:53;;;;;;;6.40;5.30;;;14.00;99.90;;;;;;5040895;28;20231;-76
2023/03/13 08:51:21;;;;;;;5.35;4.82;;;14.20;99.90;;;;;;5037005;28;20553;-74
2023/03/13 08:53:49;;;;;;;5.63;5.13;;;14.60;99.90;;;;;;5042336;28;20210;-76
2023/03/13 08:56:17;;;;;;;6.00;5.07;;;14.80;99.90;;;;;;5036959;28;20308;-75
2023/03/13 08:58:48;;;;;;;6.05;5.45;;;14.80;99.90;;;;;;5038054;28;20586;-75
2023/03/13 09:01:17;;;;;;;8.88;5.35;;;14.70;99.90;;;;;;5051326;28;20290;-76
2023/03/13 09:03:44;;;;;;;7.88;5.47;;;14.40;99.90;;;;;;5045266;28;20277;-75
2023/03/13 09:06:12;;;;;;;5.35;4.82;;;14.10;99.90;;;;;;5040325;28;20877;-76
2023/03/13 09:08:40;;;;;;;6.05;4.78;;;14.40;99.90;;;;;;5038414;28;20206;-76
2023/03/13 09:11:08;;;;;;;7.43;5.43;;;14.60;99.90;;;;;;5039133;28;20222;-75
2023/03/13 09:13:37;;;;;;;6.80;5.30;;;14.90;99.90;;;;;;5037196;28;20664;-76
2023/03/13 09:16:07;;;;;;;5.80;5.30;;;14.50;99.90;;;;;;5039650;28;20242;-76
2023/03/13 09:18:35;;;;;;;6.88;4.95;;;14.10;99.90;;;;;;5039666;28;20200;-76
2023/03/13 09:21:05;;;;;;;6.40;5.65;;;13.80;99.90;;;;;;5040378;28;20293;-76
2023/03/13 09:23:32;;;;;;;13.73;5.47;;;13.80;99.90;;;;;;5035858;28;20265;-77
2023/03/13 09:25:59;;;;;;;6.65;5.22;;;13.80;99.90;;;;;;5033370;28;20199;-75
2023/03/13 09:28:26;;;;;;;5.55;5.07;;;14.10;99.90;;;;;;5043025;28;20274;-76
2023/03/13 09:30:54;;;;;;;6.13;5.53;;;14.50;99.90;;;;;;5041064;28;20241;-76
2023/03/13 09:33:22;;;;;;;6.03;5.43;;;14.60;99.90;;;;;;5040509;28;20202;-75
2023/03/13 09:35:51;;;;;;;6.05;5.47;;;14.40;99.90;;;;;;5041190;28;20222;-76
2023/03/13 09:38:18;;;;;;;7.28;5.28;;;14.60;99.90;;;;;;5043922;28;20239;-75
2023/03/13 09:40:47;;;;;;;4.97;4.47;;;14.90;99.90;;;;;;5044259;28;20253;-74
2023/03/13 09:43:25;;;;;;;6.32;5.65;;;15.00;99.90;;;;;;5040675;28;20213;-76
2023/03/13 09:45:56;;;;;;;6.80;5.53;;;15.10;99.90;;;;;;5043531;28;20187;-74
2023/03/13 09:48:31;;;;;;;6.20;5.60;;;14.80;99.90;;;;;;5039262;28;20253;-75
2023/03/13 09:51:07;;;;;;;7.75;5.45;;;14.40;99.90;;;;;;5042736;28;20825;-75
2023/03/13 09:53:41;;;;;;;6.30;5.22;;;14.20;99.90;;;;;;5038353;28;20837;-75
2023/03/13 09:56:16;;;;;;;6.82;5.70;;;14.00;99.90;;;;;;5041453;28;20260;-75
2023/03/13 09:58:50;;;;;;;7.22;5.68;;;13.90;99.90;;;;;;5044066;28;20202;-75
2023/03/13 10:01:24;;;;;;;5.88;5.28;;;13.80;99.90;;;;;;5046938;28;20277;-75
2023/03/13 10:04:01;;;;;;;6.07;5.53;;;13.40;99.90;;;;;;5044015;28;20199;-76
2023/03/13 10:06:33;;;;;;;7.72;5.65;;;13.20;99.90;;;;;;5036895;28;20222;-75
2023/03/13 10:09:01;;;;;;;5.00;4.60;;;13.20;99.90;;;;;;5042497;28;20288;-75
2023/03/13 10:11:33;;;;;;;6.28;5.10;;;13.00;99.90;;;;;;5036227;28;20642;-77
2023/03/13 10:14:05;;;;;;;6.15;5.28;;;12.90;99.90;;;;;;5035468;28;20293;-75
2023/03/13 10:16:38;;;;;;;6.15;5.32;;;12.60;99.90;;;;;;5031075;28;20254;-75
2023/03/13 10:19:13;;;;;;;6.68;5.47;;;12.40;99.90;;;;;;5032988;28;20310;-74
2023/03/13 10:21:45;;;;;;;8.60;5.55;;;12.30;99.90;;;;;;5033095;28;20293;-74
2023/03/13 10:24:19;;;;;;;6.47;5.85;;;12.20;99.90;;;;;;5036843;28;20199;-76
2023/03/13 10:26:46;;;;;;;6.57;5.95;;;12.20;99.90;;;;;;5037700;28;20296;-75
2023/03/13 10:29:23;;;;;;;5.68;5.10;;;12.10;99.90;;;;;;5037200;28;20242;-73
2023/03/13 10:31:57;;;;;;;8.18;5.95;;;12.20;99.90;;;;;;5037651;28;20283;-76
2023/03/13 10:34:25;;;;;;;7.03;5.63;;;12.30;99.90;;;;;;5039738;28;20322;-76
2023/03/13 10:36:58;;;;;;;6.40;5.65;;;12.40;99.90;;;;;;5036159;28;20283;-76
2023/03/13 10:39:28;;;;;;;5.90;5.28;;;12.50;99.90;;;;;;5041074;28;20206;-76
2023/03/13 10:42:10;;;;;;;7.50;5.60;;;12.40;99.90;;;;;;5034524;28;20707;-76
2023/03/13 10:44:37;;;;;;;7.63;6.38;;;12.20;99.90;;;;;;5036815;28;20224;-75
2023/03/13 10:47:04;;;;;;;8.30;5.68;;;12.20;99.90;;;;;;5038776;28;20242;-75
2023/03/13 10:49:33;;;;;;;6.57;5.80;;;12.20;99.90;;;;;;5039866;28;20203;-75
2023/03/13 10:52:05;;;;;;;7.20;5.90;;;12.30;99.90;;;;;;5037773;28;20293;-75
2023/03/13 10:54:35;;;;;;;7.53;6.43;;;12.40;99.90;;;;;;5041563;28;20696;-73
2023/03/13 10:57:18;;;;;;;6.70;5.90;;;12.50;99.90;;;;;;5043372;28;20226;-78
2023/03/13 10:59:47;;;;;;;5.75;5.25;;;12.60;99.90;;;;;;5048839;28;20204;-75
2023/03/13 11:02:22;;;;;;;5.68;5.18;;;12.60;99.90;;;;;;5038835;28;20267;-77
2023/03/13 11:04:52;;;;;;;7.20;6.25;;;12.70;99.90;;;;;;5035423;28;20241;-77
2023/03/13 11:07:27;;;;;;;6.20;5.68;;;12.80;99.90;;;;;;5039649;28;20211;-76
2023/03/13 11:10:02;;;;;;;6.28;5.68;;;12.90;99.90;;;;;;5037192;28;20310;-77
2023/03/13 11:12:33;;;;;;;7.75;7.00;;;12.90;99.90;;;;;;5042781;28;20237;-77
2023/03/13 11:15:01;;;;;;;6.90;5.88;;;12.70;99.90;;;;;;5035412;28;20203;-74
2023/03/13 11:17:36;;;;;;;6.22;5.55;;;12.80;99.90;;;;;;5035298;28;20284;-75
2023/03/13 11:20:21;;;;;;;6.68;5.32;;;12.90;99.90;;;;;;5037599;28;20301;-75
2023/03/13 11:23:00;;;;;;;13.93;6.03;;;13.20;99.90;;;;;;5040732;28;20226;-75
2023/03/13 11:25:35;;;;;;;8.13;5.93;;;13.50;99.90;;;;;;5042986;28;20203;-74
2023/03/13 11:28:18;;;;;;;8.73;6.05;;;13.60;99.90;;;;;;5038919;28;20961;-75
2023/03/13 11:31:03;;;;;;;7.07;6.38;;;13.60;99.90;;;;;;5041588;28;20198;-75
2023/03/13 11:33:38;;;;;;;6.88;5.80;;;13.70;99.90;;;;;;5044429;28;20262;-76
2023/03/13 11:36:14;;;;;;;7.70;5.75;;;13.80;99.90;;;;;;5048093;28;20249;-76
2023/03/13 11:38:46;;;;;;;14.60;6.38;;;13.80;99.90;;;;;;5045853;28;20230;-76
2023/03/13 11:41:30;;;;;;;8.73;6.00;;;13.90;99.90;;;;;;5044417;28;20741;-76
2023/03/13 11:44:23;;;;;;;8.30;6.68;;;14.10;99.90;;;;;;5043634;28;20190;-75
2023/03/13 11:47:19;;;;;;;7.07;5.32;;;14.30;99.90;;;;;;5043147;28;20211;-74
2023/03/13 11:49:58;;;;;;;6.22;5.63;;;14.20;99.90;;;;;;5025202;28;20203;-79
2023/03/13 11:52:40;;;;;;;7.18;6.38;;;14.30;99.90;;;;;;5032546;28;20231;-76
2023/03/13 11:55:35;;;;;;;8.25;5.60;;;14.20;99.90;;;;;;5035902;28;20258;-76
2023/03/13 11:58:16;;;;;;;5.45;4.95;;;14.20;99.90;;;;;;5049324;28;20223;-79
2023/03/13 12:00:48;;;;;;;5.38;4.88;;;14.30;99.90;;;;;;5044437;28;20212;-76
2023/03/13 12:03:19;;;;;;;7.38;4.95;;;14.50;99.90;;;;;;5042230;28;20203;-76
2023/03/13 12:05:51;;;;;;;7.07;5.93;;;14.70;99.90;;;;;;5044635;28;20564;-75
2023/03/13 12:08:21;;;;;;;5.80;5.18;;;14.90;99.90;;;;;;5045630;28;20203;-76
2023/03/13 12:11:00;;;;;;;6.07;5.28;;;15.00;99.90;;;;;;5041868;28;20201;-76
2023/03/13 12:13:32;;;;;;;8.55;5.78;;;15.50;99.90;;;;;;5042842;28;20712;-77
2023/03/13 12:16:05;;;;;;;6.90;6.28;;;15.70;99.90;;;;;;5041771;28;20206;-76
2023/03/13 12:18:38;;;;;;;6.97;6.13;;;15.80;99.90;;;;;;5043488;28;20316;-77
2023/03/13 12:21:13;;;;;;;6.60;6.10;;;15.90;99.90;;;;;;5049960;28;20199;-77
2023/03/13 12:23:49;;;;;;;7.10;5.93;;;16.00;99.90;;;;;;5046840;28;20238;-77
2023/03/13 12:26:19;;;;;;;7.63;5.70;;;16.20;99.90;;;;;;5043000;28;20218;-76
2023/03/13 12:29:06;;;;;;;6.72;6.03;;;16.20;99.90;;;;;;5046176;28;20203;-76
2023/03/13 12:31:38;;;;;;;8.13;6.80;;;16.40;99.90;;;;;;5044037;28;20905;-78
2023/03/13 12:34:14;;;;;;;8.02;6.03;;;16.50;99.90;;;;;;5040319;28;20245;-77
2023/03/13 12:36:47;;;;;;;7.28;6.55;;;16.60;99.90;;;;;;5039414;28;20264;-75
2023/03/13 12:39:26;;;;;;;7.07;6.32;;;16.70;99.90;;;;;;5043397;28;20237;-76
2023/03/13 12:42:18;;;;;;;7.28;5.97;;;16.60;99.90;;;;;;5043798;28;23431;-75
2023/03/13 12:44:46;;;;;;;10.57;6.03;;;16.50;99.90;;;;;;5044290;28;20207;-75
2023/03/13 12:47:18;;;;;;;8.95;6.20;;;16.70;99.90;;;;;;5041820;28;20203;-77
2023/03/13 12:50:26;;;;;;;6.13;5.53;;;16.80;99.90;;;;;;5041093;28;20552;-76
2023/03/13 12:53:15;;;;;;;7.57;5.45;;;16.60;99.90;;;;;;5042362;28;20741;-76
2023/03/13 12:56:12;;;;;;;8.55;6.45;;;16.60;99.90;;;;;;5055517;28;20203;-76
2023/03/13 12:58:48;;;;;;;6.90;6.22;;;16.60;99.90;;;;;;5040160;28;20302;-76
2023/03/13 13:01:26;;;;;;;8.50;5.72;;;16.50;99.90;;;;;;5041936;28;20253;-76
2023/03/13 13:03:58;;;;;;;8.38;6.32;;;16.40;99.90;;;;;;5041095;28;20209;-76
2023/03/13 13:06:56;;;;;;;6.85;6.25;;;16.40;99.90;;;;;;5040442;28;20594;-76
2023/03/13 13:09:25;;;;;;;5.97;5.10;;;16.50;99.90;;;;;;5040925;28;20732;-77
2023/03/13 13:11:54;;;;;;;7.15;5.65;;;16.80;99.90;;;;;;5043829;28;20289;-76
2023/03/13 13:14:57;;;;;;;6.13;5.35;;;17.00;99.90;;;;;;5039802;28;20263;-78
2023/03/13 13:17:43;;;;;;;6.22;5.63;;;17.00;99.90;;;;;;5044463;28;20569;-75
2023/03/13 13:20:39;;;;;;;9.00;5.70;;;17.10;99.90;;;;;;5040435;28;20203;-76
2023/03/13 13:23:35;;;;;;;5.47;4.95;;;17.30;99.90;;;;;;5044437;28;20276;-76
2023/03/13 13:26:45;;;;;;;7.68;5.40;;;17.20;99.90;;;;;;5043162;28;20203;-77
2023/03/13 13:29:57;;;;;;;6.40;5.68;;;17.20;99.90;;;;;;5045014;28;20243;-75
2023/03/13 13:32:38;;;;;;;5.15;4.10;;;17.00;99.90;;;;;;5040507;28;20274;-76
2023/03/13 13:35:19;;;;;;;7.18;5.13;;;17.10;99.90;;;;;;5045132;28;20282;-77
2023/03/13 13:37:46;;;;;;;6.80;5.18;;;17.30;99.90;;;;;;5038941;28;20299;-76
2023/03/13 13:40:27;;;;;;;9.75;5.30;;;17.30;99.90;;;;;;5041224;28;20202;-77
2023/03/13 13:42:56;;;;;;;16.10;5.45;;;17.20;99.90;;;;;;5043634;28;20210;-75
2023/03/13 13:45:32;;;;;;;8.27;5.03;;;16.90;99.90;;;;;;5041732;28;20199;-75
2023/03/13 13:48:29;;;;;;;9.20;6.03;;;16.90;99.90;;;;;;5043184;28;20218;-76
2023/03/13 13:51:27;;;;;;;5.78;5.18;;;16.70;99.90;;;;;;5040585;28;20199;-76